CheckWX is a tool to help pilots better visualize weather data.  It is not intended as a substitute for an official pre-flight weather briefing.

23:30:02 UTC

KMIV METAR
Millville Municipal Airport
Millville, New Jersey, USA
Current

36 mins ago

KMIV 312254Z AUTO 08012KT 10SM OVC020 07/01 A2992 RMK AO2 SLP132 T00670011
Observed
Mar-31 @ 22:54 UTC
Wind
  • 080° at 12 KTS
Visibility
10 SM
Flight Rules
MVFR
Cloud Levels
  • Overcast at 2,000' AGL
Temperature
C / 45°F
Dewpoint
C / 34°F
Humidity
66%
Altimeter
29.92" Hg
Pressure
1013.22 hPa
Previous

2 hours ago

KMIV 312154Z AUTO 10010KT 10SM OVC022 07/02 A2993 RMK AO2 SLP132 T00720017
Observed
Mar-31 @ 21:54 UTC
Wind
  • 100° at 10 KTS
Visibility
10 SM
Flight Rules
MVFR
Cloud Levels
  • Overcast at 2,200' AGL
Temperature
C / 45°F
Dewpoint
C / 36°F
Humidity
71%
Altimeter
29.93" Hg
Pressure
1013.52 hPa
Previous

3 hours ago

KMIV 312054Z AUTO 10012KT 10SM OVC023 08/02 A2994 RMK AO2 SLP137 T00780022 56016
Observed
Mar-31 @ 20:54 UTC
Wind
  • 100° at 12 KTS
Visibility
10 SM
Flight Rules
MVFR
Cloud Levels
  • Overcast at 2,300' AGL
Temperature
C / 46°F
Dewpoint
C / 36°F
Humidity
66%
Altimeter
29.94" Hg
Pressure
1013.92 hPa